Time;durP1;ratioP1;P1;durP2;ratioP2;P2;SDS_P1;SDS_P2;PMS_P1;PMS_P2;Temp;Humidity;BMP_temperature;BMP_pressure;BME280_temperature;BME280_humidity;BME280_pressure;Samples;Min_cycle;Max_cycle;Signal;HPM_P1;HPM_P2
2022/06/18 00:02:00;;;;;;;7.42;3.40;;;;;;;14.79;62.04;101721.73;1685650;84;21965;-90
2022/06/18 00:04:54;;;;;;;9.77;4.10;;;;;;;14.76;62.14;101718.56;1706815;83;21034;-90
2022/06/18 00:07:21;;;;;;;6.40;3.92;;;;;;;14.76;62.25;101721.65;1706412;84;21031;-86
2022/06/18 00:10:19;;;;;;;5.12;3.50;;;;;;;14.74;62.33;101720.28;1706356;83;21097;-91
2022/06/18 00:15:41;;;;;;;5.80;3.27;;;;;;;14.75;62.49;101712.81;1671053;84;21831;-86
2022/06/18 00:18:13;;;;;;;6.28;3.90;;;;;;;14.74;62.53;101711.45;1668349;83;21688;-91
2022/06/18 00:20:40;;;;;;;5.50;3.67;;;;;;;14.73;62.55;101709.64;1706152;82;21050;-86
2022/06/18 00:23:09;;;;;;;7.47;4.08;;;;;;;14.70;62.61;101705.17;1694341;84;21074;-86
2022/06/18 00:25:38;;;;;;;6.33;3.62;;;;;;;14.68;62.66;101716.17;1681699;84;21078;-90
2022/06/18 00:28:15;;;;;;;5.65;3.50;;;;;;;14.63;62.76;101707.65;1696473;84;21827;-86
2022/06/18 00:30:42;;;;;;;6.75;3.62;;;;;;;14.61;62.82;101700.09;1653016;83;21333;-86
2022/06/18 00:33:15;;;;;;;5.35;3.20;;;;;;;14.58;62.91;101703.14;1705031;83;21572;-92
2022/06/18 00:35:42;;;;;;;5.85;3.87;;;;;;;14.57;62.94;101702.66;1691705;83;28911;-86
2022/06/18 00:38:15;;;;;;;6.75;4.00;;;;;;;14.54;63.00;101701.22;1695202;84;21062;-86
2022/06/18 00:41:05;;;;;;;4.22;3.37;;;;;;;14.52;63.08;101710.00;1678722;84;21715;-91
2022/06/18 00:44:06;;;;;;;5.33;3.00;;;;;;;14.50;63.14;101703.33;1679915;84;21048;-90
2022/06/18 00:47:18;;;;;;;4.15;3.15;;;;;;;14.50;63.20;101697.15;1694784;84;21026;-91
2022/06/18 00:50:09;;;;;;;4.22;3.50;;;;;;;14.50;63.30;101700.69;1673997;84;21097;-86
2022/06/18 00:52:43;;;;;;;5.05;3.42;;;;;;;14.50;63.30;101690.52;1681838;83;21074;-86
2022/06/18 00:55:23;;;;;;;9.00;3.77;;;;;;;14.57;63.35;101697.80;1693822;83;21812;-91
2022/06/18 00:58:22;;;;;;;8.65;3.72;;;;;;;14.63;63.39;101695.72;1697428;84;21079;-90
2022/06/18 01:00:49;;;;;;;9.18;3.67;;;;;;;14.66;63.34;101702.40;1708354;83;21048;-90
2022/06/18 01:03:47;;;;;;;8.55;3.37;;;;;;;14.68;63.28;101700.71;1728919;83;21081;-91
2022/06/18 01:06:20;;;;;;;6.35;3.00;;;;;;;14.69;63.25;101698.51;1718331;83;21131;-86
2022/06/18 01:08:47;;;;;;;;;;;;;;;14.71;63.26;101696.78;1702637;83;21770;-86
2022/06/18 01:11:25;;;;;;;5.08;3.50;;;;;;;14.71;63.26;101694.14;1678175;84;20169;-85
2022/06/18 01:13:52;;;;;;;8.35;3.20;;;;;;;14.73;63.20;101688.44;1728226;82;21111;-86
2022/06/18 01:16:20;;;;;;;4.05;2.77;;;;;;;14.76;63.18;101695.14;1680791;84;21165;-89
2022/06/18 01:19:11;;;;;;;5.12;3.00;;;;;;;14.80;63.14;101693.02;1701163;84;21065;-91
2022/06/18 01:22:16;;;;;;;5.28;3.37;;;;;;;14.81;63.10;101684.23;1675645;84;21791;-86
2022/06/18 01:25:07;;;;;;;5.78;2.95;;;;;;;14.84;63.07;101685.60;1660705;85;21915;-90
2022/06/18 01:27:35;;;;;;;9.95;2.62;;;;;;;14.86;63.01;101685.64;1658899;85;21122;-85
2022/06/18 01:30:38;;;;;;;5.12;3.10;;;;;;;14.85;63.00;101686.52;1641776;87;21156;-90
2022/06/18 01:33:19;;;;;;;4.67;2.70;;;;;;;14.87;63.00;101687.01;1650633;86;21083;-89
2022/06/18 01:35:49;;;;;;;5.33;3.20;;;;;;;14.90;62.97;101680.46;1669041;86;22619;-88
2022/06/18 01:38:16;;;;;;;4.62;3.08;;;;;;;14.91;62.95;101673.39;1670595;85;21143;-92
2022/06/18 01:41:52;;;;;;;4.97;2.87;;;;;;;14.94;62.86;101665.48;1668972;86;21136;-91
2022/06/18 01:44:49;;;;;;;3.90;2.45;;;;;;;14.95;62.86;101658.01;1671262;85;21212;-90
2022/06/18 01:47:39;;;;;;;4.12;2.67;;;;;;;14.94;62.80;101654.88;1656250;86;21056;-91
2022/06/18 01:50:53;;;;;;;4.37;2.72;;;;;;;14.93;62.80;101654.44;1665043;86;21827;-93
2022/06/18 01:53:41;;;;;;;4.12;2.80;;;;;;;14.81;62.79;101631.22;1638827;85;21086;-87
2022/06/18 01:56:13;;;;;;;4.42;2.58;;;;;;;14.95;62.78;101657.57;1657391;85;21147;-86
2022/06/18 01:59:00;;;;;;;;;;;;;;;14.95;62.82;101652.27;1650394;86;21088;-93
2022/06/18 02:01:36;;;;;;;3.08;2.33;;;;;;;14.96;62.86;101651.42;1668493;86;20200;-93
2022/06/18 02:04:03;;;;;;;4.35;3.02;;;;;;;14.96;62.79;101640.82;1646245;85;21789;-86
2022/06/18 02:06:30;;;;;;;8.23;2.62;;;;;;;14.97;62.88;101642.59;1681641;83;21546;-86
2022/06/18 02:08:59;;;;;;;6.17;2.50;;;;;;;14.89;62.86;101617.69;1697016;82;21103;-86
2022/06/18 02:11:26;;;;;;;3.33;2.60;;;;;;;15.01;62.82;101632.95;1631154;84;21154;-87
2022/06/18 02:14:07;;;;;;;3.52;2.20;;;;;;;15.04;62.85;101622.86;1712764;83;21131;-93
2022/06/18 02:16:41;;;;;;;3.72;2.45;;;;;;;15.06;62.78;101623.78;1720738;83;21831;-93
2022/06/18 02:19:29;;;;;;;3.77;2.35;;;;;;;15.10;62.76;101619.00;1698789;83;21019;-91
2022/06/18 02:21:56;;;;;;;5.72;2.25;;;;;;;15.15;62.68;101611.59;1691712;83;21063;-85
2022/06/18 02:24:23;;;;;;;4.12;2.67;;;;;;;15.22;62.61;101612.63;1692696;84;21092;-90
2022/06/18 02:26:50;;;;;;;4.35;2.30;;;;;;;15.28;62.60;101615.39;1705060;83;21044;-85
2022/06/18 02:29:21;;;;;;;5.33;2.55;;;;;;;15.34;62.78;101609.30;1684258;82;21758;-90
2022/06/18 02:32:02;;;;;;;4.22;2.72;;;;;;;15.40;62.88;101599.24;1672183;85;21052;-91
2022/06/18 02:34:31;;;;;;;5.17;2.90;;;;;;;15.44;62.92;101597.10;1672702;84;21082;-91
2022/06/18 02:37:00;;;;;;;6.85;2.55;;;;;;;15.47;62.92;101595.41;1671875;85;21095;-91
2022/06/18 02:39:37;;;;;;;6.35;2.92;;;;;;;15.51;62.89;101593.26;1671778;85;21143;-91
2022/06/18 02:42:13;;;;;;;4.37;3.00;;;;;;;15.55;62.93;101590.23;1674462;83;21789;-91
2022/06/18 02:44:43;;;;;;;4.08;2.60;;;;;;;15.58;62.89;101588.97;1692504;84;21071;-91
2022/06/18 02:47:10;;;;;;;3.90;2.75;;;;;;;15.62;62.85;101585.50;1692066;84;21053;-86
2022/06/18 02:49:44;;;;;;;3.75;2.50;;;;;;;15.63;62.74;101585.06;1692413;83;21139;-91
2022/06/18 02:52:17;;;;;;;4.05;2.47;;;;;;;15.67;62.67;101581.17;1718557;82;21111;-86
2022/06/18 02:54:43;;;;;;;10.35;2.70;;;;;;;15.74;62.66;101589.71;1704898;82;21764;-86
2022/06/18 02:57:24;;;;;;;4.72;2.47;;;;;;;15.81;62.52;101584.53;1689189;84;21045;-87
2022/06/18 02:59:50;;;;;;;3.98;2.42;;;;;;;15.87;62.40;101591.26;1692469;83;21197;-86
2022/06/18 03:02:19;;;;;;;4.60;2.27;;;;;;;15.93;62.25;101585.63;1676296;83;21085;-85
2022/06/18 03:04:46;;;;;;;3.65;2.60;;;;;;;16.00;62.16;101589.26;1690985;84;21666;-86
2022/06/18 03:07:23;;;;;;;3.87;2.30;;;;;;;16.05;61.98;101584.92;1710764;83;22942;-90
2022/06/18 03:13:19;;;;;;;4.87;2.27;;;;;;;16.17;61.74;101571.38;1716041;83;21035;-90
2022/06/18 03:15:47;;;;;;;3.80;2.00;;;;;;;16.23;61.44;101576.77;1716105;82;21588;-90
2022/06/18 03:18:15;;;;;;;2.80;1.77;;;;;;;16.29;61.25;101582.16;1692544;83;21052;-90
2022/06/18 03:21:15;;;;;;;4.12;2.02;;;;;;;16.34;61.06;101575.16;1691514;83;22588;-85
2022/06/18 03:23:48;;;;;;;3.00;2.00;;;;;;;16.38;60.85;101577.44;1692088;84;21063;-91
2022/06/18 03:26:21;;;;;;;2.65;1.60;;;;;;;16.41;60.75;101578.38;1692748;84;21050;-85
2022/06/18 03:28:48;;;;;;;2.50;2.00;;;;;;;16.46;60.63;101578.42;1697308;83;21170;-91
2022/06/18 03:31:14;;;;;;;2.60;1.80;;;;;;;16.50;60.56;101577.17;1702182;84;21079;-90
2022/06/18 03:33:41;;;;;;;2.67;1.90;;;;;;;16.56;60.55;101574.16;1716560;82;21726;-91
2022/06/18 03:36:10;;;;;;;2.35;1.70;;;;;;;16.60;60.47;101576.86;1704205;82;21815;-86
2022/06/18 03:38:36;;;;;;;3.33;1.90;;;;;;;16.64;60.43;101576.02;1706991;83;21097;-87
2022/06/18 03:41:03;;;;;;;6.08;1.80;;;;;;;16.69;60.37;101573.44;1693875;83;21060;-86
2022/06/18 03:43:39;;;;;;;6.42;1.90;;;;;;;16.71;60.34;101570.36;1717475;83;21040;-92
2022/06/18 03:46:08;;;;;;;2.17;1.47;;;;;;;16.76;60.42;101571.73;1700298;82;22413;-91
2022/06/18 03:49:01;;;;;;;3.17;1.90;;;;;;;16.78;60.24;101576.22;1701498;83;21078;-86
2022/06/18 03:51:28;;;;;;;3.33;1.95;;;;;;;16.82;60.23;101578.07;1711634;83;21075;-86
2022/06/18 03:53:55;;;;;;;4.37;1.70;;;;;;;16.87;60.08;101582.10;1692139;83;21119;-91
2022/06/18 03:56:25;;;;;;;6.37;1.82;;;;;;;16.90;60.10;101579.49;1712058;83;21108;-85
2022/06/18 03:58:52;;;;;;;4.65;1.67;;;;;;;16.93;60.06;101580.88;1729814;81;21805;-86
2022/06/18 04:01:40;;;;;;;4.12;2.02;;;;;;;16.99;60.21;101584.05;1748222;81;21840;-90
2022/06/18 04:04:06;;;;;;;3.80;1.87;;;;;;;17.02;60.25;101578.73;1725093;81;21062;-86
2022/06/18 04:06:34;;;;;;;3.27;1.80;;;;;;;17.03;60.23;101581.42;1740990;81;21218;-87
2022/06/18 04:09:06;;;;;;;1.62;1.47;;;;;;;17.05;60.25;101579.67;1708628;82;21079;-92
2022/06/18 04:11:33;;;;;;;2.52;1.82;;;;;;;17.09;60.50;101576.61;1710418;82;21770;-90
2022/06/18 04:14:00;;;;;;;2.80;1.90;;;;;;;17.11;60.70;101570.86;1709371;82;21093;-84
2022/06/18 04:16:56;;;;;;;2.33;1.80;;;;;;;17.14;60.90;101573.58;1687819;83;21067;-90
2022/06/18 04:19:52;;;;;;;3.08;2.27;;;;;;;17.16;61.13;101570.48;1716072;82;21107;-89
2022/06/18 04:22:19;;;;;;;3.87;2.70;;;;;;;17.21;61.25;101569.19;1719354;82;21061;-85
2022/06/18 04:24:46;;;;;;;4.62;3.22;;;;;;;17.26;61.40;101576.80;1715641;82;21102;-88
2022/06/18 04:27:14;;;;;;;4.12;3.10;;;;;;;17.31;61.52;101572.87;1702082;83;21628;-90
2022/06/18 04:30:29;;;;;;;6.00;3.42;;;;;;;17.33;61.59;101571.11;1741212;82;21086;-90
2022/06/18 04:32:56;;;;;;;4.85;3.67;;;;;;;17.32;61.54;101568.86;1738164;82;21073;-85
2022/06/18 04:35:23;;;;;;;5.33;4.78;;;;;;;17.35;61.71;101565.36;1720784;82;21104;-90
2022/06/18 04:37:49;;;;;;;6.62;6.00;;;;;;;17.38;61.91;101565.37;1735794;82;21761;-88
2022/06/18 04:40:32;;;;;;;8.43;7.30;;;;;;;17.38;61.84;101566.70;1648485;85;21091;-85
2022/06/18 04:42:58;;;;;;;8.90;8.00;;;;;;;17.33;61.76;101557.81;1723568;82;21059;-89
2022/06/18 04:45:25;;;;;;;11.03;9.40;;;;;;;17.29;62.01;101548.90;1739592;82;21647;-85
2022/06/18 04:47:52;;;;;;;13.48;11.90;;;;;;;17.28;61.98;101544.44;1730678;82;21039;-85
2022/06/18 04:50:23;;;;;;;11.78;10.53;;;;;;;17.24;61.99;101535.53;1709585;83;22606;-86
2022/06/18 04:52:52;;;;;;;10.48;9.48;;;;;;;17.22;62.10;101535.08;1718792;82;21200;-86
2022/06/18 04:55:19;;;;;;;11.28;9.60;;;;;;;17.22;62.12;101553.70;1720843;82;21087;-86
2022/06/18 04:57:47;;;;;;;11.43;10.03;;;;;;;17.19;62.25;101554.57;1711155;83;21066;-86
2022/06/18 05:00:15;;;;;;;13.98;11.63;;;;;;;17.17;62.45;101552.75;1715686;83;21578;-87
2022/06/18 05:02:42;;;;;;;14.23;12.20;;;;;;;17.19;62.54;101555.90;1719342;82;21750;-85
2022/06/18 05:05:19;;;;;;;14.30;12.78;;;;;;;17.22;62.54;101549.26;1721797;82;21058;-85
2022/06/18 05:07:45;;;;;;;14.93;13.32;;;;;;;17.25;62.61;101551.97;1710306;82;21035;-86
2022/06/18 05:10:12;;;;;;;15.58;13.90;;;;;;;17.28;62.86;101543.98;1710580;82;21091;-85
2022/06/18 05:12:39;;;;;;;15.60;13.93;;;;;;;17.38;63.04;101541.42;1713098;82;21118;-86
2022/06/18 05:15:32;;;;;;;17.45;14.20;;;;;;;17.49;63.25;101532.69;1740135;82;21897;-90
2022/06/18 05:17:59;;;;;;;16.32;13.20;;;;;;;17.65;63.46;101532.81;1739224;82;21071;-85
2022/06/18 05:20:27;;;;;;;13.75;12.35;;;;;;;17.84;63.35;101528.11;1703995;84;21099;-86
2022/06/18 05:22:54;;;;;;;13.20;11.93;;;;;;;18.06;63.45;101524.28;1710836;83;21086;-85
2022/06/18 05:25:21;;;;;;;12.40;10.13;;;;;;;18.31;63.53;101514.64;1705811;84;21601;-86
2022/06/18 05:27:47;;;;;;;10.50;8.40;;;;;;;18.53;63.33;101514.77;1734319;81;22950;-90
2022/06/18 05:30:17;;;;;;;7.58;6.60;;;;;;;18.79;63.35;101514.86;1739320;82;21066;-85
2022/06/18 05:32:44;;;;;;;9.98;6.40;;;;;;;19.07;62.96;101500.27;1718960;82;21090;-85
2022/06/18 05:35:12;;;;;;;6.60;6.00;;;;;;;19.33;62.78;101506.56;1728568;82;21104;-85
2022/06/18 05:37:39;;;;;;;5.92;5.33;;;;;;;19.47;62.12;101507.89;1698996;83;21115;-86
2022/06/18 05:40:07;;;;;;;5.90;5.33;;;;;;;19.60;61.88;101495.44;1719963;82;21775;-85
2022/06/18 05:42:34;;;;;;;10.00;6.60;;;;;;;19.74;61.71;101500.79;1740596;82;21059;-86
2022/06/18 05:45:01;;;;;;;6.35;5.33;;;;;;;19.97;61.53;101492.73;1739960;82;21090;-86
2022/06/18 05:47:33;;;;;;;6.53;4.62;;;;;;;20.33;61.59;101489.55;1740788;82;21090;-86
2022/06/18 05:50:02;;;;;;;5.12;4.55;;;;;;;20.76;61.26;101487.59;1719895;82;21075;-86
2022/06/18 05:52:29;;;;;;;4.50;4.10;;;;;;;21.09;60.47;101490.06;1725051;82;21859;-86
2022/06/18 05:54:56;;;;;;;4.80;4.28;;;;;;;21.20;59.77;101488.20;1735691;82;21063;-90
2022/06/18 05:57:23;;;;;;;4.03;3.65;;;;;;;21.16;59.02;101491.34;1706820;83;21027;-86
2022/06/18 05:59:53;;;;;;;4.25;3.85;;;;;;;21.15;58.80;101498.95;1705764;84;21071;-90
2022/06/18 06:02:21;;;;;;;3.95;3.55;;;;;;;21.16;58.54;101497.16;1705894;83;21178;-90
2022/06/18 06:04:47;;;;;;;7.97;4.72;;;;;;;21.23;58.43;101489.53;1671395;84;21788;-86
2022/06/18 06:07:22;;;;;;;3.55;3.25;;;;;;;21.41;58.05;101484.46;1692391;84;21537;-91
2022/06/18 06:12:36;;;;;;;4.67;3.52;;;;;;;21.99;57.28;101473.68;1698017;83;21898;-86
2022/06/18 06:15:04;;;;;;;4.87;3.60;;;;;;;22.19;57.11;101448.00;1683876;84;21746;-91
2022/06/18 06:17:32;;;;;;;4.45;3.12;;;;;;;22.49;56.57;101460.16;1705418;83;21780;-91
2022/06/18 06:20:12;;;;;;;4.60;3.00;;;;;;;22.61;56.12;101456.41;1706513;83;21063;-86
2022/06/18 06:22:58;;;;;;;4.55;3.20;;;;;;;22.64;55.89;101448.34;1706512;83;21058;-90
2022/06/18 06:25:25;;;;;;;3.65;2.85;;;;;;;22.62;55.65;101442.57;1705967;83;21324;-90
2022/06/18 06:27:52;;;;;;;4.05;2.80;;;;;;;22.48;55.12;101444.95;1706674;83;21031;-91
2022/06/18 06:30:19;;;;;;;5.03;3.00;;;;;;;22.37;55.16;101439.31;1706243;83;21957;-86
2022/06/18 06:32:45;;;;;;;3.92;3.10;;;;;;;22.30;54.63;101429.13;1702527;83;21587;-86
2022/06/18 06:35:12;;;;;;;5.80;2.90;;;;;;;22.31;54.43;101428.20;1705849;83;21071;-92
2022/06/18 06:37:39;;;;;;;5.22;2.83;;;;;;;22.31;54.43;101428.20;1705454;83;21094;-86
2022/06/18 06:40:07;;;;;;;3.87;2.70;;;;;;;22.35;54.41;101424.57;1697069;83;21117;-86
2022/06/18 06:42:46;;;;;;;4.72;3.70;;;;;;;22.41;54.33;101425.86;1676586;85;21841;-86
2022/06/18 06:45:27;;;;;;;7.40;2.77;;;;;;;22.47;54.19;101419.05;1677714;83;21305;-91
2022/06/18 06:47:55;;;;;;;4.00;2.83;;;;;;;22.48;54.15;101413.23;1699125;83;21726;-90
2022/06/18 06:50:25;;;;;;;4.17;2.75;;;;;;;22.42;54.06;101398.56;1705826;83;21223;-86
2022/06/18 06:52:51;;;;;;;2.30;2.10;;;;;;;22.55;54.14;101408.67;1705831;83;21556;-91
2022/06/18 06:58:10;;;;;;;3.65;2.40;;;;;;;22.76;53.78;101396.73;1672434;83;21113;-91
2022/06/18 07:00:45;;;;;;;4.42;2.65;;;;;;;22.80;53.73;101395.77;1701964;82;21064;-86
2022/06/18 07:03:13;;;;;;;2.55;2.30;;;;;;;22.97;53.86;101390.14;1696739;84;21043;-92
2022/06/18 07:05:39;;;;;;;4.00;2.55;;;;;;;23.11;53.57;101396.20;1702889;83;21130;-86
2022/06/18 07:08:09;;;;;;;3.02;2.17;;;;;;;23.25;53.35;101388.78;1698431;84;21746;-86
2022/06/18 07:10:35;;;;;;;3.22;2.15;;;;;;;23.44;53.15;101382.65;1696773;83;21063;-86
2022/06/18 07:13:02;;;;;;;2.87;2.33;;;;;;;23.68;52.89;101384.42;1701999;83;21584;-86
2022/06/18 07:15:28;;;;;;;3.90;2.02;;;;;;;23.95;52.50;101374.06;1694963;84;21131;-86
2022/06/18 07:17:55;;;;;;;4.28;2.20;;;;;;;24.17;52.35;101370.00;1682501;84;21088;-87
2022/06/18 07:20:22;;;;;;;3.77;2.80;;;;;;;24.48;52.06;101357.23;1695255;83;21761;-85
2022/06/18 07:22:49;;;;;;;2.45;1.85;;;;;;;24.79;51.81;101352.00;1695204;84;21076;-91
2022/06/18 07:25:15;;;;;;;4.45;2.40;;;;;;;25.10;51.43;101339.60;1696689;83;21052;-91
2022/06/18 07:27:42;;;;;;;2.47;2.08;;;;;;;25.39;50.84;101338.84;1675656;84;21036;-91
2022/06/18 07:30:10;;;;;;;4.08;2.22;;;;;;;25.56;50.52;101337.89;1684345;85;21778;-86
2022/06/18 07:32:38;;;;;;;2.95;1.92;;;;;;;25.61;50.06;101337.78;1696199;83;21733;-91
2022/06/18 07:35:06;;;;;;;3.52;2.52;;;;;;;25.60;49.76;101323.43;1700432;84;21806;-85
2022/06/18 07:37:32;;;;;;;3.83;2.08;;;;;;;25.50;49.38;101327.77;1701265;84;21067;-91
2022/06/18 07:39:59;;;;;;;2.90;2.27;;;;;;;25.44;49.48;101333.34;1698684;84;21092;-86
2022/06/18 07:42:26;;;;;;;2.60;2.20;;;;;;;25.32;49.06;101326.02;1694458;84;21119;-86
2022/06/18 07:44:52;;;;;;;3.50;2.12;;;;;;;25.23;48.96;101323.56;1681931;84;23074;-86
2022/06/18 07:50:35;;;;;;;6.20;2.33;;;;;;;25.15;48.73;101324.17;1694774;83;21111;-86
2022/06/18 07:53:02;;;;;;;3.55;2.77;;;;;;;25.13;48.88;101322.90;1688257;83;21576;-86
2022/06/18 07:55:29;;;;;;;4.87;2.70;;;;;;;25.10;48.96;101318.92;1701181;84;21050;-86
2022/06/18 07:58:10;;;;;;;3.05;2.72;;;;;;;25.20;49.02;101315.52;1688391;83;21800;-91
2022/06/18 08:00:39;;;;;;;5.97;3.17;;;;;;;25.31;49.08;101316.62;1693849;82;21083;-86
2022/06/18 08:03:06;;;;;;;3.67;2.60;;;;;;;25.51;48.90;101316.04;1690829;83;21052;-86
2022/06/18 08:05:33;;;;;;;3.22;2.40;;;;;;;25.73;48.86;101307.79;1693642;83;21063;-87
2022/06/18 08:08:00;;;;;;;3.90;2.35;;;;;;;25.95;48.73;101300.42;1706630;83;21082;-85
2022/06/18 08:10:27;;;;;;;3.12;2.02;;;;;;;26.25;48.56;101305.81;1692303;83;21790;-86
2022/06/18 08:13:06;;;;;;;2.83;2.47;;;;;;;26.54;48.37;101300.36;1706446;83;21074;-91
2022/06/18 08:15:33;;;;;;;5.00;3.35;;;;;;;26.95;48.10;101295.86;1699499;83;22382;-86
2022/06/18 08:18:00;;;;;;;3.83;2.30;;;;;;;27.31;47.46;101289.67;1702402;84;21047;-92
2022/06/18 08:20:27;;;;;;;2.65;2.05;;;;;;;27.49;47.03;101262.88;1706208;83;21096;-86
2022/06/18 08:22:59;;;;;;;5.37;2.33;;;;;;;27.71;46.62;101271.95;1708091;83;22474;-86
2022/06/18 08:25:29;;;;;;;4.78;2.25;;;;;;;27.84;46.18;101275.06;1697732;84;21051;-90
2022/06/18 08:27:57;;;;;;;4.78;2.50;;;;;;;27.94;45.90;101265.27;1701998;83;21625;-86
2022/06/18 08:30:46;;;;;;;7.00;2.60;;;;;;;28.02;45.75;101265.84;1697407;83;21072;-87
2022/06/18 08:33:13;;;;;;;3.40;2.20;;;;;;;28.04;45.51;101262.59;1704826;82;21031;-92
2022/06/18 08:35:43;;;;;;;4.70;2.33;;;;;;;27.83;44.82;101258.89;1705665;83;21994;-92
2022/06/18 08:38:12;;;;;;;3.60;2.62;;;;;;;27.65;44.88;101251.03;1706128;82;21055;-87
2022/06/18 08:40:53;;;;;;;3.20;2.30;;;;;;;27.59;44.87;101255.30;1679359;84;21099;-86
2022/06/18 08:43:53;;;;;;;2.70;2.00;;;;;;;27.60;44.91;101259.30;1694914;83;21226;-85
2022/06/18 08:46:43;;;;;;;3.92;2.08;;;;;;;27.54;44.84;101254.14;1694695;83;21605;-86
2022/06/18 08:49:21;;;;;;;3.00;2.05;;;;;;;27.35;44.49;101260.70;1694457;83;21776;-86
2022/06/18 08:51:53;;;;;;;2.25;1.90;;;;;;;27.27;44.42;101256.94;1688804;83;21443;-84
2022/06/18 08:54:40;;;;;;;5.33;2.17;;;;;;;27.37;44.75;101255.22;1700815;82;21102;-85
2022/06/18 08:57:21;;;;;;;6.30;2.27;;;;;;;27.45;44.07;101251.30;1711501;82;21122;-85
2022/06/18 09:00:00;;;;;;;5.60;2.40;;;;;;;27.54;43.91;101242.84;1716024;82;21098;-90
2022/06/18 09:02:40;;;;;;;3.00;1.87;;;;;;;27.76;43.75;101236.63;1727472;81;21783;-85
2022/06/18 09:05:15;;;;;;;2.02;1.77;;;;;;;28.03;43.03;101233.79;1733178;82;21102;-86
2022/06/18 09:08:19;;;;;;;4.22;2.08;;;;;;;28.21;43.01;101230.78;1725682;82;21083;-85
2022/06/18 09:10:57;;;;;;;2.70;1.70;;;;;;;28.40;42.49;101229.09;1726614;82;21102;-85
2022/06/18 09:13:34;;;;;;;3.20;1.62;;;;;;;28.57;41.89;101222.09;1732842;82;21132;-90
2022/06/18 09:16:05;;;;;;;2.95;1.50;;;;;;;28.58;41.36;101215.75;1717931;82;22589;-85
2022/06/18 09:18:46;;;;;;;1.72;1.45;;;;;;;28.53;41.16;101217.31;1738236;82;21239;-86
2022/06/18 09:21:21;;;;;;;7.90;1.90;;;;;;;28.46;40.65;101204.94;1717587;82;21080;-91
2022/06/18 09:24:02;;;;;;;3.42;1.90;;;;;;;28.43;40.46;101208.64;1707983;84;21075;-91
2022/06/18 09:26:45;;;;;;;5.95;2.02;;;;;;;28.35;40.22;101199.97;1716440;83;21061;-93
2022/06/18 09:29:28;;;;;;;9.43;2.55;;;;;;;28.35;40.40;101199.10;1719968;82;22606;-87
2022/06/18 09:32:10;;;;;;;2.83;1.60;;;;;;;28.38;40.25;101193.53;1738391;82;21564;-86
2022/06/18 09:34:44;;;;;;;3.35;1.55;;;;;;;28.29;40.04;101178.10;1709298;82;21043;-87
2022/06/18 09:37:25;;;;;;;6.45;1.90;;;;;;;28.17;39.78;101172.31;1732352;82;21091;-87
2022/06/18 09:39:55;;;;;;;2.80;1.80;;;;;;;28.09;39.88;101173.99;1713338;83;21060;-87
2022/06/18 09:42:30;;;;;;;4.37;1.90;;;;;;;28.10;39.82;101163.59;1741593;82;21211;-91
2022/06/18 09:48:37;;;;;;;2.70;1.70;;;;;;;28.17;39.78;101161.01;1712636;82;21315;-87
2022/06/18 09:51:16;;;;;;;3.15;1.60;;;;;;;28.34;39.70;101164.36;1710736;83;21079;-93
2022/06/18 09:53:43;;;;;;;3.90;1.77;;;;;;;28.43;39.31;101168.51;1720220;82;21070;-94
2022/06/18 09:56:15;;;;;;;2.80;1.70;;;;;;;28.56;39.44;101156.23;1722868;82;21765;-87
2022/06/18 09:58:46;;;;;;;5.90;1.67;;;;;;;28.81;39.48;101161.91;1727048;82;21353;-91
2022/06/18 10:01:18;;;;;;;5.33;1.65;;;;;;;29.08;39.06;101162.50;1718122;82;21074;-92
2022/06/18 10:09:48;;;;;;;3.25;1.60;;;;;;;29.29;38.19;101136.25;1723669;82;21935;-92
2022/06/18 10:12:36;;;;;;;4.92;1.77;;;;;;;29.35;37.99;101134.59;1715755;82;21592;-87
2022/06/18 10:15:08;;;;;;;1.87;1.67;;;;;;;29.37;38.10;101132.69;1716776;82;21063;-88
2022/06/18 10:18:16;;;;;;;4.28;1.90;;;;;;;29.29;37.87;101118.63;1721317;83;21676;-88
2022/06/18 10:21:01;;;;;;;2.52;1.52;;;;;;;29.19;37.55;101116.84;1706608;82;21086;-94
2022/06/18 10:24:03;;;;;;;3.42;1.80;;;;;;;28.99;37.60;101120.43;1722422;82;21713;-89
2022/06/18 10:27:25;;;;;;;1.92;1.40;;;;;;;28.78;37.29;101118.72;1714375;82;21055;-94
2022/06/18 10:30:48;;;;;;;4.50;2.15;;;;;;;28.58;37.36;101110.99;1705731;83;21040;-89
2022/06/18 10:33:43;;;;;;;3.52;2.15;;;;;;;28.57;37.49;101109.70;1699312;84;21079;-89
2022/06/18 10:36:30;;;;;;;2.83;2.00;;;;;;;28.65;37.42;101108.91;1706681;83;21110;-87
2022/06/18 10:39:21;;;;;;;3.00;1.37;;;;;;;28.87;37.39;101103.41;1728455;83;22625;-93
2022/06/18 10:42:22;;;;;;;3.22;1.70;;;;;;;29.08;36.97;101104.23;1707533;83;21607;-94
2022/06/18 10:45:03;;;;;;;3.10;1.65;;;;;;;29.21;36.63;101104.08;1714979;83;21043;-88
2022/06/18 10:47:35;;;;;;;3.52;1.95;;;;;;;29.30;36.74;101099.16;1727237;82;21039;-94
2022/06/18 10:50:08;;;;;;;6.47;1.85;;;;;;;29.36;36.49;101102.95;1709174;83;21071;-92
2022/06/18 10:52:43;;;;;;;2.47;1.67;;;;;;;29.45;36.43;101094.34;1721622;82;21775;-91
2022/06/18 10:55:20;;;;;;;4.53;1.80;;;;;;;29.53;36.53;101088.09;1717586;82;21083;-92
2022/06/18 10:57:48;;;;;;;3.27;1.90;;;;;;;29.72;36.43;101083.12;1714513;83;21075;-91
2022/06/18 11:00:25;;;;;;;4.55;1.60;;;;;;;29.82;36.02;101083.08;1718523;82;21612;-91
2022/06/18 11:02:53;;;;;;;2.98;1.98;;;;;;;29.88;36.12;101078.69;1717901;83;21119;-91
2022/06/18 11:05:30;;;;;;;1.98;1.47;;;;;;;30.03;36.12;101077.03;1728139;82;21850;-92
2022/06/18 11:08:00;;;;;;;3.67;1.62;;;;;;;30.20;35.95;101074.34;1725336;82;21028;-86
2022/06/18 11:10:55;;;;;;;3.60;1.85;;;;;;;30.35;35.80;101074.51;1711833;83;21095;-93
2022/06/18 11:13:37;;;;;;;3.15;1.55;;;;;;;30.51;35.70;101059.65;1718700;83;21063;-86
2022/06/18 11:16:24;;;;;;;4.70;1.80;;;;;;;30.66;35.52;101065.61;1718500;83;21111;-87
2022/06/18 11:18:57;;;;;;;2.87;1.52;;;;;;;30.72;35.29;101057.11;1720941;82;21762;-92
2022/06/18 11:21:39;;;;;;;4.70;1.82;;;;;;;30.84;35.19;101056.04;1714856;83;21071;-86
2022/06/18 11:24:20;;;;;;;5.25;2.35;;;;;;;30.92;35.08;101051.11;1723900;83;21121;-92
2022/06/18 11:26:55;;;;;;;2.15;1.90;;;;;;;31.00;34.94;101055.62;1723696;82;21146;-94
2022/06/18 11:30:19;;;;;;;3.52;1.52;;;;;;;31.17;34.89;101054.67;1720810;82;21700;-92
2022/06/18 11:32:47;;;;;;;2.65;1.37;;;;;;;31.33;34.81;101043.33;1714362;83;21666;-93
2022/06/18 11:35:28;;;;;;;6.53;2.10;;;;;;;31.55;34.33;101048.90;1688223;84;21036;-93
2022/06/18 11:38:06;;;;;;;2.42;1.57;;;;;;;31.58;34.11;101039.21;1714280;82;21578;-87
2022/06/18 11:40:32;;;;;;;2.33;1.55;;;;;;;31.62;33.93;101040.78;1709336;83;21087;-92
2022/06/18 11:43:30;;;;;;;4.15;1.92;;;;;;;31.51;33.32;101033.23;1704107;83;21047;-91
2022/06/18 11:46:02;;;;;;;2.37;1.70;;;;;;;31.48;33.55;101040.23;1706972;82;21864;-87
2022/06/18 11:49:03;;;;;;;3.42;1.60;;;;;;;31.42;33.45;101033.73;1698215;83;21624;-87
2022/06/18 11:51:40;;;;;;;3.05;1.82;;;;;;;31.28;33.38;101014.64;1716208;83;21170;-87
2022/06/18 11:54:49;;;;;;;4.17;1.80;;;;;;;31.34;33.35;101028.74;1720785;83;21111;-87
2022/06/18 11:57:27;;;;;;;2.85;2.35;;;;;;;31.24;33.26;101026.17;1718101;82;21079;-91
2022/06/18 12:00:18;;;;;;;1.85;1.37;;;;;;;31.21;33.44;101019.54;1714068;83;21393;-92
2022/06/18 12:02:56;;;;;;;4.70;1.60;;;;;;;31.26;33.38;101013.86;1708912;82;21019;-87
2022/06/18 12:05:36;;;;;;;3.60;1.50;;;;;;;31.25;33.42;101003.44;1711882;82;21115;-92
2022/06/18 12:08:04;;;;;;;5.03;1.82;;;;;;;31.30;33.40;100999.11;1717402;83;21068;-87
2022/06/18 12:10:42;;;;;;;4.08;2.02;;;;;;;31.33;33.11;100992.14;1723058;83;21585;-92
2022/06/18 12:13:26;;;;;;;2.15;1.90;;;;;;;31.32;32.90;100987.66;1701737;82;22685;-87
2022/06/18 12:16:04;;;;;;;2.37;1.57;;;;;;;31.22;32.61;100979.16;1714934;83;21632;-91
2022/06/18 12:18:39;;;;;;;3.08;1.65;;;;;;;31.11;32.26;100970.75;1712752;83;21083;-87
2022/06/18 12:21:35;;;;;;;3.72;1.67;;;;;;;30.80;32.21;100970.62;1712827;82;21087;-87
2022/06/18 12:24:26;;;;;;;3.92;2.30;;;;;;;30.59;32.33;100974.52;1719866;82;21139;-92
2022/06/18 12:27:22;;;;;;;3.00;1.77;;;;;;;30.47;32.41;100965.72;1727966;83;21772;-87
2022/06/18 12:30:18;;;;;;;7.15;2.40;;;;;;;30.21;32.49;100963.41;1721382;83;21110;-92